createdAt,value
2018-12-10T00:01:50.790Z,4.90
2018-12-10T00:04:22.467Z,4.90
2018-12-10T00:06:53.495Z,5.10
2018-12-10T00:09:24.511Z,5.10
2018-12-10T00:11:55.368Z,5.10
2018-12-10T00:14:26.182Z,5.10
2018-12-10T00:16:57.359Z,5.10
2018-12-10T00:19:28.690Z,5.10
2018-12-10T00:21:59.842Z,5.10
2018-12-10T00:24:33.355Z,5.10
2018-12-10T00:27:07.341Z,5.10
2018-12-10T00:29:38.723Z,5.10
2018-12-10T00:32:09.705Z,5.10
2018-12-10T00:34:41.039Z,5.00
2018-12-10T00:40:15.853Z,4.80
2018-12-10T00:42:46.698Z,4.80
2018-12-10T00:45:17.740Z,4.70
2018-12-10T00:47:48.604Z,4.70
2018-12-10T00:50:22.627Z,4.60
2018-12-10T00:52:53.775Z,4.50
2018-12-10T00:55:24.551Z,4.50
2018-12-10T00:57:55.543Z,4.40
2018-12-10T01:00:29.211Z,4.50
2018-12-10T01:03:00.327Z,4.50
2018-12-10T01:05:33.835Z,4.30
2018-12-10T01:08:05.445Z,4.40
2018-12-10T01:10:36.395Z,4.40
2018-12-10T01:13:08.088Z,4.30
2018-12-10T01:15:39.028Z,4.30
2018-12-10T01:18:09.987Z,4.40
2018-12-10T01:20:40.983Z,4.40
2018-12-10T01:26:15.647Z,4.30
2018-12-10T01:28:46.791Z,4.50
2018-12-10T01:31:17.864Z,4.40
2018-12-10T01:33:49.063Z,4.50
2018-12-10T01:36:19.919Z,4.60
2018-12-10T01:38:50.843Z,4.60
2018-12-10T01:41:24.319Z,4.60
2018-12-10T01:43:55.819Z,4.60
2018-12-10T01:46:29.109Z,4.50
2018-12-10T01:48:58.697Z,4.50
2018-12-10T01:51:30.011Z,4.40
2018-12-10T01:54:00.742Z,4.40
2018-12-10T01:56:31.842Z,4.40
2018-12-10T01:59:05.212Z,4.30
2018-12-10T02:01:36.743Z,4.20
2018-12-10T02:04:07.825Z,4.20
2018-12-10T02:09:12.462Z,4.20
2018-12-10T02:11:43.714Z,4.20
2018-12-10T02:14:14.680Z,4.20
2018-12-10T02:17:07.764Z,4.10
2018-12-10T02:19:38.745Z,4.00
2018-12-10T02:22:09.939Z,3.90
2018-12-10T02:24:39.735Z,3.80
2018-12-10T02:27:13.118Z,3.90
2018-12-10T02:29:44.847Z,3.90
2018-12-10T02:32:18.479Z,3.80
2018-12-10T02:34:49.771Z,3.90
2018-12-10T02:37:20.586Z,4.00
2018-12-10T02:39:52.123Z,4.10
2018-12-10T02:42:23.424Z,4.10
2018-12-10T02:44:55.012Z,4.00
2018-12-10T02:47:26.169Z,4.00
2018-12-10T02:49:57.019Z,4.00
2018-12-10T02:52:27.903Z,4.10
2018-12-10T02:54:59.242Z,4.10
2018-12-10T02:57:30.047Z,4.20
2018-12-10T03:00:01.305Z,4.10
2018-12-10T03:02:32.374Z,4.10
2018-12-10T03:05:03.753Z,4.20
2018-12-10T03:07:34.512Z,4.20
2018-12-10T03:10:08.285Z,4.10
2018-12-10T03:12:41.961Z,4.10
2018-12-10T03:15:13.324Z,4.10
2018-12-10T03:17:44.323Z,4.00
2018-12-10T03:20:15.246Z,3.90
2018-12-10T03:22:46.300Z,4.00
2018-12-10T03:25:17.492Z,3.90
2018-12-10T03:27:47.207Z,3.70
2018-12-10T03:30:18.351Z,3.70
2018-12-10T03:32:49.245Z,3.50
2018-12-10T03:35:20.288Z,3.60
2018-12-10T03:37:51.369Z,3.50
2018-12-10T03:40:22.351Z,3.40
2018-12-10T03:42:53.316Z,3.40
2018-12-10T03:45:24.203Z,3.40
2018-12-10T03:47:55.319Z,3.40
2018-12-10T03:50:27.019Z,3.20
2018-12-10T03:52:57.842Z,3.20
2018-12-10T03:55:28.715Z,3.10
2018-12-10T03:57:59.824Z,3.10
2018-12-10T04:00:31.084Z,3.10
2018-12-10T04:03:02.783Z,3.20
2018-12-10T04:05:33.993Z,3.10
2018-12-10T04:08:05.131Z,3.10
2018-12-10T04:10:36.303Z,3.10
2018-12-10T04:13:07.774Z,3.10
2018-12-10T04:15:37.783Z,3.00
2018-12-10T04:18:09.427Z,3.00
2018-12-10T04:20:40.437Z,2.90
2018-12-10T04:23:13.994Z,2.90
2018-12-10T04:25:45.077Z,2.90
2018-12-10T04:28:17.815Z,2.90
2018-12-10T04:30:51.757Z,2.90
2018-12-10T04:33:23.213Z,2.90
2018-12-10T04:35:54.351Z,2.80
2018-12-10T04:38:25.523Z,2.70
2018-12-10T04:40:56.732Z,2.70
2018-12-10T04:43:27.683Z,2.70
2018-12-10T04:46:01.241Z,2.70
2018-12-10T04:48:32.644Z,2.50
2018-12-10T04:51:03.563Z,2.50
2018-12-10T04:53:37.301Z,2.30
2018-12-10T04:56:08.321Z,2.40
2018-12-10T04:58:39.175Z,2.30
2018-12-10T05:01:10.315Z,2.50
2018-12-10T05:03:43.813Z,2.50
2018-12-10T05:06:17.611Z,2.50
2018-12-10T05:08:49.263Z,2.40
2018-12-10T05:11:22.845Z,2.30
2018-12-10T05:13:54.320Z,2.30
2018-12-10T05:16:26.131Z,2.20
2018-12-10T05:18:56.973Z,2.20
2018-12-10T05:21:27.851Z,2.30
2018-12-10T05:23:58.814Z,2.30
2018-12-10T05:26:29.699Z,2.30
2018-12-10T05:29:00.847Z,2.10
2018-12-10T05:31:31.770Z,2.00
2018-12-10T05:34:02.900Z,2.00
2018-12-10T05:36:36.240Z,2.20
2018-12-10T05:39:10.191Z,2.30
2018-12-10T05:41:41.700Z,2.30
2018-12-10T05:44:12.848Z,2.30
2018-12-10T05:46:44.136Z,2.10
2018-12-10T05:49:16.293Z,2.10
2018-12-10T05:51:48.050Z,2.20
2018-12-10T05:54:18.851Z,2.20
2018-12-10T05:56:49.890Z,2.30
2018-12-10T05:59:21.255Z,2.40
2018-12-10T06:01:53.163Z,2.50
2018-12-10T06:04:24.217Z,2.50
2018-12-10T06:06:56.088Z,2.50
2018-12-10T06:09:27.296Z,2.50
2018-12-10T06:12:00.655Z,2.40
2018-12-10T06:14:32.051Z,2.40
2018-12-10T06:17:05.598Z,2.40
2018-12-10T06:19:37.219Z,2.30
2018-12-10T06:22:08.033Z,2.30
2018-12-10T06:24:39.196Z,2.40
2018-12-10T06:27:10.090Z,2.40
2018-12-10T06:29:41.175Z,2.50
2018-12-10T06:32:12.699Z,2.40
2018-12-10T06:34:44.458Z,2.40
2018-12-10T06:37:17.739Z,2.60
2018-12-10T06:39:49.199Z,2.80
2018-12-10T06:42:18.966Z,2.70
2018-12-10T06:44:50.063Z,2.80
2018-12-10T06:47:22.115Z,2.80
2018-12-10T06:49:53.750Z,2.80
2018-12-10T06:52:27.138Z,2.80
2018-12-10T06:54:58.500Z,2.80
2018-12-10T06:57:29.451Z,2.90
2018-12-10T07:00:00.444Z,2.90
2018-12-10T07:02:31.568Z,2.90
2018-12-10T07:05:05.359Z,3.10
2018-12-10T07:07:38.899Z,3.10
2018-12-10T07:10:10.465Z,3.10
2018-12-10T07:12:41.461Z,3.10
2018-12-10T07:15:15.353Z,3.20
2018-12-10T07:17:46.682Z,3.20
2018-12-10T07:20:17.535Z,3.30
2018-12-10T07:22:49.227Z,3.30
2018-12-10T07:25:22.968Z,3.50
2018-12-10T07:27:54.573Z,3.50
2018-12-10T07:30:25.563Z,3.50
2018-12-10T07:32:56.606Z,3.60
2018-12-10T07:35:28.075Z,3.60
2018-12-10T07:38:00.144Z,3.70
2018-12-10T07:40:33.155Z,3.60
2018-12-10T07:43:02.696Z,3.50
2018-12-10T07:45:34.611Z,3.50
2018-12-10T07:48:07.280Z,3.40
2018-12-10T07:50:39.382Z,3.40
2018-12-10T07:53:12.705Z,3.40
2018-12-10T07:55:44.423Z,3.50
2018-12-10T07:58:16.151Z,3.50
2018-12-10T08:00:49.853Z,3.40
2018-12-10T08:03:21.318Z,3.40
2018-12-10T08:05:53.012Z,3.40
2018-12-10T08:08:23.943Z,3.40
2018-12-10T08:10:57.629Z,3.60
2018-12-10T08:13:28.996Z,3.60
2018-12-10T08:16:00.004Z,3.60
2018-12-10T08:18:31.023Z,3.60
2018-12-10T08:21:02.704Z,3.70
2018-12-10T08:23:34.639Z,3.70
2018-12-10T08:26:06.124Z,3.70
2018-12-10T08:28:38.413Z,3.70
2018-12-10T08:31:09.460Z,3.80
2018-12-10T08:33:40.365Z,3.90
2018-12-10T08:36:12.410Z,4.00
2018-12-10T08:38:44.127Z,4.00
2018-12-10T08:41:19.201Z,4.10
2018-12-10T08:43:48.675Z,4.20
2018-12-10T08:46:22.851Z,4.30
2018-12-10T08:48:54.516Z,4.40
2018-12-10T08:51:26.134Z,4.50
2018-12-10T08:53:58.767Z,4.60
2018-12-10T08:56:34.312Z,4.70
2018-12-10T08:59:05.884Z,4.80
2018-12-10T09:01:37.011Z,4.80
2018-12-10T09:04:07.908Z,4.80
2018-12-10T09:06:41.323Z,4.90
2018-12-10T09:09:12.912Z,5.00
2018-12-10T09:11:44.292Z,5.20
2018-12-10T09:14:16.428Z,5.30
2018-12-10T09:16:48.208Z,5.20
2018-12-10T09:19:21.943Z,5.40
2018-12-10T09:21:53.369Z,5.40
2018-12-10T09:24:24.530Z,5.40
2018-12-10T09:26:55.446Z,5.30
2018-12-10T09:29:26.608Z,5.30
2018-12-10T09:31:58.111Z,5.20
2018-12-10T09:34:29.852Z,5.30
2018-12-10T09:37:01.615Z,5.40
2018-12-10T09:39:32.963Z,5.40
2018-12-10T09:42:04.219Z,5.60
2018-12-10T09:44:35.871Z,5.80
2018-12-10T09:47:06.907Z,6.10
2018-12-10T09:49:38.029Z,6.20
2018-12-10T09:52:09.328Z,6.40
2018-12-10T09:54:40.335Z,6.50
2018-12-10T09:57:11.231Z,6.60
2018-12-10T09:59:42.383Z,6.80
2018-12-10T10:02:13.320Z,6.90
2018-12-10T10:04:44.310Z,6.90
2018-12-10T10:07:15.511Z,6.70
2018-12-10T10:09:46.421Z,6.70
2018-12-10T10:12:17.216Z,6.70
2018-12-10T10:14:49.308Z,6.70
2018-12-10T10:17:20.202Z,6.70
2018-12-10T10:19:51.324Z,6.80
2018-12-10T10:22:22.387Z,6.90
2018-12-10T10:24:53.563Z,6.70
2018-12-10T10:27:25.592Z,6.70
2018-12-10T10:29:56.914Z,6.70
2018-12-10T10:32:27.903Z,6.70
2018-12-10T10:34:59.090Z,6.70
2018-12-10T10:37:32.810Z,6.60
2018-12-10T10:40:05.228Z,6.80
2018-12-10T10:42:36.788Z,6.70
2018-12-10T10:45:08.795Z,6.60
2018-12-10T10:47:40.471Z,6.60
2018-12-10T10:50:11.576Z,6.60
2018-12-10T10:52:43.187Z,6.50
2018-12-10T10:55:14.183Z,6.50
2018-12-10T10:57:47.995Z,6.60
2018-12-10T11:00:25.245Z,6.60
2018-12-10T11:03:10.630Z,6.50
2018-12-10T11:05:41.563Z,6.70
2018-12-10T11:08:12.569Z,6.70
2018-12-10T11:10:43.867Z,6.90
2018-12-10T11:13:15.594Z,6.70
2018-12-10T11:15:46.738Z,6.80
2018-12-10T11:18:18.072Z,6.70
2018-12-10T11:20:49.091Z,6.70
2018-12-10T11:23:20.131Z,6.70
2018-12-10T11:25:53.448Z,6.60
2018-12-10T11:28:25.301Z,6.60
2018-12-10T11:30:57.119Z,6.60
2018-12-10T11:33:28.430Z,6.60
2018-12-10T11:36:02.033Z,6.60
2018-12-10T11:38:33.447Z,6.60
2018-12-10T11:41:04.654Z,6.70
2018-12-10T11:43:35.576Z,6.70
2018-12-10T11:46:06.894Z,6.70
2018-12-10T11:48:37.920Z,6.80
2018-12-10T11:51:08.853Z,6.80
2018-12-10T11:53:39.823Z,6.90
2018-12-10T11:56:11.266Z,6.90
2018-12-10T11:58:42.191Z,6.80
2018-12-10T12:01:13.063Z,6.70
2018-12-10T12:03:46.467Z,6.80
2018-12-10T12:06:17.746Z,6.90
2018-12-10T12:08:51.404Z,6.80
2018-12-10T12:11:22.939Z,6.70
2018-12-10T12:13:57.549Z,6.80
2018-12-10T12:16:29.082Z,6.70
2018-12-10T12:19:11.073Z,6.60
2018-12-10T12:21:35.436Z,6.80
2018-12-10T12:24:06.703Z,6.60
2018-12-10T12:26:40.292Z,6.80
2018-12-10T12:29:11.782Z,6.60
2018-12-10T12:31:45.099Z,6.70
2018-12-10T12:34:19.188Z,6.50
2018-12-10T12:36:50.783Z,6.30
2018-12-10T12:39:22.535Z,6.30
2018-12-10T12:41:54.440Z,6.40
2018-12-10T12:44:25.444Z,6.50
2018-12-10T12:46:56.452Z,6.30
2018-12-10T12:49:27.279Z,6.50
2018-12-10T12:52:00.908Z,6.30
2018-12-10T12:54:32.436Z,6.40
2018-12-10T12:57:05.888Z,6.30
2018-12-10T12:59:36.897Z,6.20
2018-12-10T13:02:08.126Z,6.10
2018-12-10T13:04:39.706Z,6.10
2018-12-10T13:07:11.037Z,6.20
2018-12-10T13:09:42.073Z,6.10
2018-12-10T13:12:13.011Z,6.10
2018-12-10T13:14:44.322Z,6.10
2018-12-10T13:17:15.370Z,6.30
2018-12-10T13:19:48.841Z,6.20
2018-12-10T13:22:22.964Z,6.30
2018-12-10T13:24:54.083Z,6.30
2018-12-10T13:27:24.914Z,6.20
2018-12-10T13:29:56.099Z,6.10
2018-12-10T13:32:27.747Z,6.10
2018-12-10T13:35:01.539Z,6.10
2018-12-10T13:37:32.507Z,6.10
2018-12-10T13:40:04.020Z,6.00
2018-12-10T13:42:35.607Z,6.10
2018-12-10T13:45:06.811Z,6.20
2018-12-10T13:47:38.290Z,6.30
2018-12-10T13:50:09.550Z,6.20
2018-12-10T13:52:40.552Z,6.20
2018-12-10T13:55:12.129Z,6.20
2018-12-10T13:57:43.618Z,6.10
2018-12-10T14:00:17.424Z,6.00
2018-12-10T14:02:46.711Z,6.00
2018-12-10T14:05:17.903Z,5.90
2018-12-10T14:07:48.934Z,6.00
2018-12-10T14:10:20.751Z,6.00
2018-12-10T14:12:51.939Z,5.90
2018-12-10T14:15:26.043Z,5.80
2018-12-10T14:25:32.759Z,5.60
2018-12-10T14:28:04.734Z,5.60
2018-12-10T14:30:37.493Z,5.70
2018-12-10T14:33:09.550Z,5.50
2018-12-10T14:35:41.227Z,5.50
2018-12-10T14:38:13.316Z,5.60
2018-12-10T14:40:46.896Z,5.40
2018-12-10T14:43:18.304Z,5.40
2018-12-10T14:45:49.383Z,5.40
2018-12-10T14:48:21.188Z,5.40
2018-12-10T14:50:52.119Z,5.40
2018-12-10T14:53:25.626Z,5.50
2018-12-10T14:55:57.350Z,5.50
2018-12-10T14:58:28.905Z,5.40
2018-12-10T15:00:59.947Z,5.30
2018-12-10T15:03:31.355Z,5.40
2018-12-10T15:06:02.644Z,5.40
2018-12-10T15:08:32.423Z,5.30
2018-12-10T15:11:03.639Z,5.40
2018-12-10T15:13:35.627Z,5.30
2018-12-10T15:16:06.683Z,5.30
2018-12-10T15:18:40.147Z,5.30
2018-12-10T15:26:47.998Z,5.20
2018-12-10T15:29:19.204Z,5.10
2018-12-10T15:31:50.062Z,5.10
2018-12-10T15:34:21.078Z,5.00
2018-12-10T15:36:52.954Z,5.00
2018-12-10T15:39:26.199Z,5.00
2018-12-10T15:41:59.550Z,5.00
2018-12-10T15:44:31.058Z,5.10
2018-12-10T15:47:02.506Z,5.10
2018-12-10T15:49:34.184Z,5.00
2018-12-10T15:52:05.353Z,5.00
2018-12-10T15:54:35.108Z,5.00
2018-12-10T15:57:06.254Z,5.10
2018-12-10T15:59:39.685Z,5.10
2018-12-10T16:02:11.133Z,5.00
2018-12-10T16:04:42.047Z,5.00
2018-12-10T16:07:12.994Z,5.00
2018-12-10T16:09:44.113Z,4.90
2018-12-10T16:12:15.184Z,5.00
2018-12-10T16:14:49.343Z,5.00
2018-12-10T16:17:20.623Z,5.00
2018-12-10T16:19:51.695Z,4.80
2018-12-10T16:22:22.639Z,4.70
2018-12-10T16:24:53.680Z,4.60
2018-12-10T16:27:25.026Z,4.70
2018-12-10T16:29:56.707Z,4.60
2018-12-10T16:32:30.185Z,4.50
2018-12-10T16:35:01.746Z,4.30
2018-12-10T16:37:32.820Z,4.20
2018-12-10T16:40:05.020Z,4.20
2018-12-10T16:42:36.715Z,4.20
2018-12-10T16:45:08.482Z,4.20
2018-12-10T16:47:42.428Z,4.20
2018-12-10T16:50:14.274Z,4.30
2018-12-10T16:52:45.283Z,4.30
2018-12-10T16:55:16.268Z,4.10
2018-12-10T16:57:49.725Z,4.00
2018-12-10T17:00:21.551Z,3.80
2018-12-10T17:02:52.649Z,3.70
2018-12-10T17:05:27.476Z,3.70
2018-12-10T17:07:58.359Z,3.60
2018-12-10T17:10:29.557Z,3.60
2018-12-10T17:13:00.871Z,3.60
2018-12-10T17:15:32.011Z,3.60
2018-12-10T17:18:03.687Z,3.50
2018-12-10T17:20:34.850Z,3.40
2018-12-10T17:23:05.881Z,3.50
2018-12-10T17:25:40.080Z,3.30
2018-12-10T17:28:11.718Z,3.30
2018-12-10T17:30:42.584Z,3.30
2018-12-10T17:33:13.658Z,3.20
2018-12-10T17:35:47.150Z,3.20
2018-12-10T17:38:21.227Z,3.20
2018-12-10T17:40:52.468Z,3.30
2018-12-10T17:43:23.521Z,3.20
2018-12-10T17:45:54.551Z,3.30
2018-12-10T17:48:26.266Z,3.30
2018-12-10T17:50:57.396Z,3.30
2018-12-10T17:53:30.815Z,3.20
2018-12-10T17:56:02.239Z,3.20
2018-12-10T17:58:33.951Z,3.30
2018-12-10T18:01:04.881Z,3.40
2018-12-10T18:03:35.701Z,3.40
2018-12-10T18:06:06.836Z,3.40
2018-12-10T18:08:38.695Z,3.30
2018-12-10T18:11:09.781Z,3.30
2018-12-10T18:13:43.252Z,3.30
2018-12-10T18:16:14.670Z,3.30
2018-12-10T18:18:45.611Z,3.50
2018-12-10T18:21:16.791Z,3.50
2018-12-10T18:23:50.338Z,3.50
2018-12-10T18:26:21.675Z,3.60
2018-12-10T18:28:53.491Z,3.60
2018-12-10T18:31:24.316Z,3.60
2018-12-10T18:33:55.975Z,3.70
2018-12-10T18:36:27.574Z,3.80
2018-12-10T18:38:58.551Z,3.80
2018-12-10T18:41:32.223Z,3.70
2018-12-10T18:44:03.895Z,3.70
2018-12-10T18:46:34.628Z,3.60
2018-12-10T18:49:05.865Z,3.60
2018-12-10T18:51:37.808Z,3.50
2018-12-10T18:54:08.907Z,3.50
2018-12-10T18:56:42.372Z,3.40
2018-12-10T18:59:14.209Z,3.20
2018-12-10T19:01:48.609Z,3.10
2018-12-10T19:04:19.870Z,2.90
2018-12-10T19:06:50.802Z,2.60
2018-12-10T19:09:21.856Z,2.60
2018-12-10T19:11:53.237Z,2.40
2018-12-10T19:14:24.144Z,2.40
2018-12-10T19:16:55.393Z,2.30
2018-12-10T19:19:27.070Z,2.30
2018-12-10T19:21:58.206Z,2.60
2018-12-10T19:24:31.947Z,2.40
2018-12-10T19:27:03.366Z,2.60
2018-12-10T19:29:34.130Z,2.60
2018-12-10T19:32:05.321Z,2.50
2018-12-10T19:34:36.638Z,2.30
2018-12-10T19:37:07.693Z,2.60
2018-12-10T19:39:39.465Z,2.50
2018-12-10T19:42:11.325Z,2.40
2018-12-10T19:44:42.293Z,2.40
2018-12-10T19:47:13.281Z,2.50
2018-12-10T19:49:44.406Z,2.50
2018-12-10T19:52:15.625Z,2.30
2018-12-10T19:54:45.440Z,2.20
2018-12-10T20:00:19.990Z,2.20
2018-12-10T20:02:53.516Z,2.00
2018-12-10T20:05:30.679Z,2.00
2018-12-10T20:08:04.616Z,1.90
2018-12-10T20:10:36.092Z,1.90
2018-12-10T20:13:07.128Z,1.80
2018-12-10T20:15:40.649Z,1.80
2018-12-10T20:18:12.123Z,1.90
2018-12-10T20:20:46.362Z,1.80
2018-12-10T20:23:17.895Z,1.90
2018-12-10T20:25:49.091Z,1.70
2018-12-10T20:28:20.176Z,1.60
2018-12-10T20:33:33.198Z,1.80
2018-12-10T20:36:07.139Z,2.00
2018-12-10T20:38:38.887Z,2.10
2018-12-10T20:41:09.861Z,2.00
2018-12-10T20:43:43.295Z,2.10
2018-12-10T20:46:15.207Z,2.30
2018-12-10T20:48:49.367Z,2.20
2018-12-10T20:51:20.983Z,2.00
2018-12-10T20:53:55.561Z,2.00
2018-12-10T20:56:26.834Z,2.00
2018-12-10T20:58:58.469Z,1.90
2018-12-10T21:01:29.510Z,1.90
2018-12-10T21:04:01.019Z,1.80
2018-12-10T21:06:36.404Z,2.10
2018-12-10T21:09:08.805Z,2.20
2018-12-10T21:11:38.583Z,2.20
2018-12-10T21:14:09.411Z,2.30
2018-12-10T21:16:40.697Z,2.20
2018-12-10T21:19:12.527Z,2.10
2018-12-10T21:21:43.443Z,2.20
2018-12-10T21:24:17.387Z,2.20
2018-12-10T21:26:48.838Z,2.30
2018-12-10T21:29:19.972Z,2.30
2018-12-10T21:31:53.472Z,2.20
2018-12-10T21:34:27.551Z,2.30
2018-12-10T21:36:58.947Z,2.40
2018-12-10T21:39:30.635Z,2.40
2018-12-10T21:42:02.001Z,2.50
2018-12-10T21:44:33.963Z,2.50
2018-12-10T21:47:05.120Z,2.60
2018-12-10T21:55:46.054Z,2.70
2018-12-10T21:58:17.047Z,3.00
2018-12-10T22:00:48.161Z,2.90
2018-12-10T22:03:19.300Z,2.90
2018-12-10T22:05:51.179Z,3.10
2018-12-10T22:08:23.013Z,3.00
2018-12-10T22:10:56.588Z,3.30
2018-12-10T22:13:30.530Z,3.20
2018-12-10T22:16:01.651Z,3.20
2018-12-10T22:18:33.075Z,3.00
2018-12-10T22:21:04.191Z,3.10
2018-12-10T22:23:35.090Z,3.10
2018-12-10T22:26:06.334Z,3.20
2018-12-10T22:28:35.799Z,3.30
2018-12-10T22:31:06.819Z,3.30
2018-12-10T22:33:37.680Z,3.40
2018-12-10T22:36:08.853Z,3.50
2018-12-10T22:38:39.820Z,3.50
2018-12-10T22:41:10.847Z,3.50
2018-12-10T22:43:45.531Z,3.50
2018-12-10T22:46:16.829Z,3.60
2018-12-10T22:48:47.663Z,3.40
2018-12-10T22:51:18.853Z,3.30
2018-12-10T22:53:49.949Z,3.40
2018-12-10T22:56:20.671Z,3.60
2018-12-10T22:58:51.472Z,3.50
2018-12-10T23:01:22.779Z,3.40
2018-12-10T23:03:53.642Z,3.30
2018-12-10T23:06:24.907Z,3.40
2018-12-10T23:08:55.861Z,3.40
2018-12-10T23:11:26.811Z,3.50
2018-12-10T23:13:58.459Z,3.50
2018-12-10T23:16:29.723Z,3.60
2018-12-10T23:19:00.639Z,3.50
2018-12-10T23:21:34.155Z,3.80
2018-12-10T23:24:03.588Z,3.90
2018-12-10T23:26:34.692Z,3.70
2018-12-10T23:29:08.245Z,3.70
2018-12-10T23:31:39.469Z,3.70
2018-12-10T23:34:10.379Z,3.80
2018-12-10T23:36:43.807Z,3.80
2018-12-10T23:39:15.179Z,3.80
2018-12-10T23:41:48.482Z,4.00
2018-12-10T23:44:25.519Z,4.00
2018-12-10T23:46:59.455Z,4.00
2018-12-10T23:49:31.215Z,3.90
2018-12-10T23:52:02.223Z,4.10
2018-12-10T23:54:33.483Z,3.80
2018-12-10T23:57:04.368Z,3.70
2018-12-10T23:59:36.231Z,3.60
